sensor_id;sensor_type;location;lat;lon;timestamp;pressure;altitude;pressure_sealevel;temperature;humidity
41254;BME280;26987;59.928;30.306;2023-02-28T00:01:11;101033.66;;;0.48;100.00
41254;BME280;26987;59.928;30.306;2023-02-28T00:03:39;101034.25;;;0.52;100.00
41254;BME280;26987;59.928;30.306;2023-02-28T00:06:08;101033.97;;;0.55;100.00
41254;BME280;26987;59.928;30.306;2023-02-28T00:08:39;101025.06;;;0.56;100.00
41254;BME280;26987;59.928;30.306;2023-02-28T00:11:08;101000.91;;;0.51;100.00
41254;BME280;26987;59.928;30.306;2023-02-28T00:13:38;101015.38;;;0.67;100.00
41254;BME280;26987;59.928;30.306;2023-02-28T00:16:08;101015.66;;;0.63;100.00
41254;BME280;26987;59.928;30.306;2023-02-28T00:18:37;101001.06;;;0.59;100.00
41254;BME280;26987;59.928;30.306;2023-02-28T00:21:05;101018.47;;;0.72;100.00
41254;BME280;26987;59.928;30.306;2023-02-28T00:23:33;101007.63;;;0.75;100.00
41254;BME280;26987;59.928;30.306;2023-02-28T00:26:03;100897.44;;;0.06;100.00
41254;BME280;26987;59.928;30.306;2023-02-28T00:28:31;100990.38;;;0.71;100.00
41254;BME280;26987;59.928;30.306;2023-02-28T00:31:00;101006.38;;;0.79;100.00
41254;BME280;26987;59.928;30.306;2023-02-28T00:33:28;100999.06;;;0.83;100.00
41254;BME280;26987;59.928;30.306;2023-02-28T00:36:04;101002.94;;;0.88;100.00
41254;BME280;26987;59.928;30.306;2023-02-28T00:38:35;100992.22;;;0.80;100.00
41254;BME280;26987;59.928;30.306;2023-02-28T00:41:05;100994.03;;;0.90;100.00
41254;BME280;26987;59.928;30.306;2023-02-28T00:43:34;100887.50;;;0.20;100.00
41254;BME280;26987;59.928;30.306;2023-02-28T00:46:02;100982.09;;;0.85;100.00
41254;BME280;26987;59.928;30.306;2023-02-28T00:48:30;100990.16;;;0.94;100.00
41254;BME280;26987;59.928;30.306;2023-02-28T00:50:58;100993.50;;;0.96;100.00
41254;BME280;26987;59.928;30.306;2023-02-28T00:53:26;100948.84;;;0.73;100.00
41254;BME280;26987;59.928;30.306;2023-02-28T00:55:57;100974.16;;;0.95;100.00
41254;BME280;26987;59.928;30.306;2023-02-28T00:58:27;100974.88;;;0.97;100.00
41254;BME280;26987;59.928;30.306;2023-02-28T01:00:55;100982.38;;;1.02;100.00
41254;BME280;26987;59.928;30.306;2023-02-28T01:03:23;100934.25;;;0.79;100.00
41254;BME280;26987;59.928;30.306;2023-02-28T01:05:51;100948.88;;;0.93;100.00
41254;BME280;26987;59.928;30.306;2023-02-28T01:08:20;100966.53;;;1.02;100.00
41254;BME280;26987;59.928;30.306;2023-02-28T01:10:48;100959.56;;;1.01;100.00
41254;BME280;26987;59.928;30.306;2023-02-28T01:13:16;100931.50;;;0.80;100.00
41254;BME280;26987;59.928;30.306;2023-02-28T01:15:48;100958.63;;;1.02;100.00
41254;BME280;26987;59.928;30.306;2023-02-28T01:18:17;100935.25;;;0.87;100.00
41254;BME280;26987;59.928;30.306;2023-02-28T01:20:47;100945.13;;;0.95;100.00
41254;BME280;26987;59.928;30.306;2023-02-28T01:23:16;100930.41;;;0.83;100.00
41254;BME280;26987;59.928;30.306;2023-02-28T01:25:44;100934.28;;;0.98;100.00
41254;BME280;26987;59.928;30.306;2023-02-28T01:28:12;100932.06;;;0.94;100.00
41254;BME280;26987;59.928;30.306;2023-02-28T01:30:40;100930.13;;;0.96;100.00
41254;BME280;26987;59.928;30.306;2023-02-28T01:33:09;100898.56;;;0.84;100.00
41254;BME280;26987;59.928;30.306;2023-02-28T01:35:37;100922.19;;;0.96;100.00
41254;BME280;26987;59.928;30.306;2023-02-28T01:38:05;100919.56;;;0.96;100.00
41254;BME280;26987;59.928;30.306;2023-02-28T01:40:33;100923.03;;;0.96;100.00
41254;BME280;26987;59.928;30.306;2023-02-28T01:43:01;100915.53;;;0.92;100.00
41254;BME280;26987;59.928;30.306;2023-02-28T01:45:30;100912.47;;;0.96;100.00
41254;BME280;26987;59.928;30.306;2023-02-28T01:48:02;100923.72;;;0.98;100.00
41254;BME280;26987;59.928;30.306;2023-02-28T01:50:35;100908.00;;;0.97;100.00
41254;BME280;26987;59.928;30.306;2023-02-28T01:53:07;100897.44;;;0.97;100.00
41254;BME280;26987;59.928;30.306;2023-02-28T01:55:37;100904.41;;;0.98;100.00
41254;BME280;26987;59.928;30.306;2023-02-28T01:58:07;100908.44;;;1.02;100.00
41254;BME280;26987;59.928;30.306;2023-02-28T02:00:36;100912.16;;;0.99;100.00
41254;BME280;26987;59.928;30.306;2023-02-28T02:03:08;100893.44;;;0.93;100.00
41254;BME280;26987;59.928;30.306;2023-02-28T02:05:40;100912.34;;;0.98;100.00
41254;BME280;26987;59.928;30.306;2023-02-28T02:08:17;100865.63;;;0.69;100.00
41254;BME280;26987;59.928;30.306;2023-02-28T02:10:48;100904.69;;;0.95;100.00
41254;BME280;26987;59.928;30.306;2023-02-28T02:13:37;100883.28;;;0.88;100.00
41254;BME280;26987;59.928;30.306;2023-02-28T02:16:19;100897.16;;;1.00;100.00
41254;BME280;26987;59.928;30.306;2023-02-28T02:18:53;100902.31;;;1.02;100.00
41254;BME280;26987;59.928;30.306;2023-02-28T02:22:01;100883.13;;;0.99;100.00
41254;BME280;26987;59.928;30.306;2023-02-28T02:27:46;100893.53;;;1.01;100.00
41254;BME280;26987;59.928;30.306;2023-02-28T02:30:37;100891.22;;;0.98;100.00
41254;BME280;26987;59.928;30.306;2023-02-28T02:33:44;100888.97;;;1.03;100.00
41254;BME280;26987;59.928;30.306;2023-02-28T02:36:23;100893.16;;;0.96;100.00
41254;BME280;26987;59.928;30.306;2023-02-28T02:38:56;100884.53;;;0.94;100.00
41254;BME280;26987;59.928;30.306;2023-02-28T02:41:33;100870.22;;;0.96;100.00
41254;BME280;26987;59.928;30.306;2023-02-28T02:44:11;100883.84;;;0.92;100.00
41254;BME280;26987;59.928;30.306;2023-02-28T02:46:41;100893.69;;;0.99;100.00
41254;BME280;26987;59.928;30.306;2023-02-28T02:49:13;100892.31;;;0.85;100.00
41254;BME280;26987;59.928;30.306;2023-02-28T02:51:46;100885.66;;;0.81;100.00
41254;BME280;26987;59.928;30.306;2023-02-28T02:54:17;100878.81;;;0.79;100.00
41254;BME280;26987;59.928;30.306;2023-02-28T02:56:49;100858.00;;;0.66;100.00
41254;BME280;26987;59.928;30.306;2023-02-28T02:59:21;100875.38;;;0.78;100.00
41254;BME280;26987;59.928;30.306;2023-02-28T03:01:55;100866.47;;;0.79;100.00
41254;BME280;26987;59.928;30.306;2023-02-28T03:04:27;100851.34;;;0.61;100.00
41254;BME280;26987;59.928;30.306;2023-02-28T03:07:00;100838.66;;;0.65;100.00
41254;BME280;26987;59.928;30.306;2023-02-28T03:09:28;100844.38;;;0.70;100.00
41254;BME280;26987;59.928;30.306;2023-02-28T03:11:56;100844.25;;;0.72;100.00
41254;BME280;26987;59.928;30.306;2023-02-28T03:14:50;100848.84;;;0.80;100.00
41254;BME280;26987;59.928;30.306;2023-02-28T03:17:47;100853.53;;;0.76;100.00
41254;BME280;26987;59.928;30.306;2023-02-28T03:20:27;100837.00;;;0.74;100.00
41254;BME280;26987;59.928;30.306;2023-02-28T03:23:10;100848.69;;;0.71;100.00
41254;BME280;26987;59.928;30.306;2023-02-28T03:25:48;100845.38;;;0.69;100.00
41254;BME280;26987;59.928;30.306;2023-02-28T03:28:23;100858.84;;;0.66;100.00
41254;BME280;26987;59.928;30.306;2023-02-28T03:30:59;100852.84;;;0.64;100.00
41254;BME280;26987;59.928;30.306;2023-02-28T03:33:32;100839.78;;;0.62;100.00
41254;BME280;26987;59.928;30.306;2023-02-28T03:36:04;100826.47;;;0.54;100.00
41254;BME280;26987;59.928;30.306;2023-02-28T03:38:39;100856.47;;;0.63;100.00
41254;BME280;26987;59.928;30.306;2023-02-28T03:41:13;100833.41;;;0.55;100.00
41254;BME280;26987;59.928;30.306;2023-02-28T03:43:49;100851.47;;;0.60;100.00
41254;BME280;26987;59.928;30.306;2023-02-28T03:46:21;100830.06;;;0.53;100.00
41254;BME280;26987;59.928;30.306;2023-02-28T03:48:54;100839.94;;;0.61;100.00
41254;BME280;26987;59.928;30.306;2023-02-28T03:51:26;100833.66;;;0.62;100.00
41254;BME280;26987;59.928;30.306;2023-02-28T03:53:59;100840.91;;;0.60;100.00
41254;BME280;26987;59.928;30.306;2023-02-28T03:56:33;100837.84;;;0.55;100.00
41254;BME280;26987;59.928;30.306;2023-02-28T03:59:05;100835.78;;;0.58;100.00
41254;BME280;26987;59.928;30.306;2023-02-28T04:01:36;100821.88;;;0.56;100.00
41254;BME280;26987;59.928;30.306;2023-02-28T04:04:07;100835.59;;;0.50;100.00
41254;BME280;26987;59.928;30.306;2023-02-28T04:06:35;100828.25;;;0.44;100.00
41254;BME280;26987;59.928;30.306;2023-02-28T04:09:06;100832.69;;;0.43;100.00
41254;BME280;26987;59.928;30.306;2023-02-28T04:11:38;100829.50;;;0.40;100.00
41254;BME280;26987;59.928;30.306;2023-02-28T04:14:08;100826.19;;;0.37;100.00
41254;BME280;26987;59.928;30.306;2023-02-28T04:16:38;100843.94;;;0.35;100.00
41254;BME280;26987;59.928;30.306;2023-02-28T04:19:07;100846.00;;;0.32;100.00
41254;BME280;26987;59.928;30.306;2023-02-28T04:21:38;100843.38;;;0.32;100.00
41254;BME280;26987;59.928;30.306;2023-02-28T04:24:09;100838.78;;;0.34;100.00
41254;BME280;26987;59.928;30.306;2023-02-28T04:26:41;100842.41;;;0.33;100.00
41254;BME280;26987;59.928;30.306;2023-02-28T04:29:11;100841.84;;;0.29;100.00
41254;BME280;26987;59.928;30.306;2023-02-28T04:31:39;100838.22;;;0.30;100.00
41254;BME280;26987;59.928;30.306;2023-02-28T04:34:07;100825.59;;;0.24;100.00
41254;BME280;26987;59.928;30.306;2023-02-28T04:36:35;100847.56;;;0.34;100.00
41254;BME280;26987;59.928;30.306;2023-02-28T04:39:03;100852.38;;;0.29;100.00
41254;BME280;26987;59.928;30.306;2023-02-28T04:41:32;100825.88;;;0.21;100.00
41254;BME280;26987;59.928;30.306;2023-02-28T04:44:00;100828.09;;;0.26;100.00
41254;BME280;26987;59.928;30.306;2023-02-28T04:46:28;100814.47;;;0.20;100.00
41254;BME280;26987;59.928;30.306;2023-02-28T04:48:57;100820.28;;;0.14;100.00
41254;BME280;26987;59.928;30.306;2023-02-28T04:51:25;100810.59;;;0.15;100.00
41254;BME280;26987;59.928;30.306;2023-02-28T04:53:53;100811.28;;;0.17;100.00
41254;BME280;26987;59.928;30.306;2023-02-28T04:56:21;100838.34;;;0.19;100.00
41254;BME280;26987;59.928;30.306;2023-02-28T04:58:51;100829.06;;;0.24;100.00
41254;BME280;26987;59.928;30.306;2023-02-28T05:01:22;100813.38;;;0.23;100.00
41254;BME280;26987;59.928;30.306;2023-02-28T05:03:51;100801.56;;;0.17;100.00
41254;BME280;26987;59.928;30.306;2023-02-28T05:06:21;100826.16;;;0.18;100.00
41254;BME280;26987;59.928;30.306;2023-02-28T05:08:50;100820.28;;;0.14;100.00
41254;BME280;26987;59.928;30.306;2023-02-28T05:11:20;100820.88;;;0.18;100.00
41254;BME280;26987;59.928;30.306;2023-02-28T05:13:48;100825.03;;;0.20;100.00
41254;BME280;26987;59.928;30.306;2023-02-28T05:16:18;100833.91;;;0.19;100.00
41254;BME280;26987;59.928;30.306;2023-02-28T05:18:46;100824.63;;;0.25;100.00
41254;BME280;26987;59.928;30.306;2023-02-28T05:21:24;100806.69;;;0.09;100.00
41254;BME280;26987;59.928;30.306;2023-02-28T05:23:52;100846.13;;;0.30;100.00
41254;BME280;26987;59.928;30.306;2023-02-28T05:26:21;100832.13;;;0.30;100.00
41254;BME280;26987;59.928;30.306;2023-02-28T05:28:49;100822.13;;;0.33;100.00
41254;BME280;26987;59.928;30.306;2023-02-28T05:31:18;100816.16;;;0.31;100.00
41254;BME280;26987;59.928;30.306;2023-02-28T05:33:46;100828.38;;;0.32;100.00
41254;BME280;26987;59.928;30.306;2023-02-28T05:36:14;100817.81;;;0.32;100.00
41254;BME280;26987;59.928;30.306;2023-02-28T05:38:42;100821.84;;;0.36;100.00
41254;BME280;26987;59.928;30.306;2023-02-28T05:41:10;100826.72;;;0.41;100.00
41254;BME280;26987;59.928;30.306;2023-02-28T05:43:38;100836.28;;;0.42;100.00
41254;BME280;26987;59.928;30.306;2023-02-28T05:46:08;100823.41;;;0.39;100.00
41254;BME280;26987;59.928;30.306;2023-02-28T05:48:38;100850.22;;;0.54;100.00
41254;BME280;26987;59.928;30.306;2023-02-28T05:51:07;100844.94;;;0.54;100.00
41254;BME280;26987;59.928;30.306;2023-02-28T05:53:35;100847.84;;;0.51;100.00
41254;BME280;26987;59.928;30.306;2023-02-28T05:56:04;100815.06;;;0.24;100.00
41254;BME280;26987;59.928;30.306;2023-02-28T05:58:32;100865.63;;;0.49;100.00
41254;BME280;26987;59.928;30.306;2023-02-28T06:01:20;100879.53;;;0.51;100.00
41254;BME280;26987;59.928;30.306;2023-02-28T06:03:50;100863.13;;;0.37;100.00
41254;BME280;26987;59.928;30.306;2023-02-28T06:06:18;100872.38;;;0.32;100.00
41254;BME280;26987;59.928;30.306;2023-02-28T06:08:46;100874.22;;;0.31;100.00
41254;BME280;26987;59.928;30.306;2023-02-28T06:11:14;100890.72;;;0.33;100.00
41254;BME280;26987;59.928;30.306;2023-02-28T06:13:42;100897.53;;;0.36;100.00
41254;BME280;26987;59.928;30.306;2023-02-28T06:16:10;100905.59;;;0.34;100.00
41254;BME280;26987;59.928;30.306;2023-02-28T06:18:38;100910.88;;;0.34;100.00
41254;BME280;26987;59.928;30.306;2023-02-28T06:21:07;100918.25;;;0.41;100.00
41254;BME280;26987;59.928;30.306;2023-02-28T06:23:35;100905.88;;;0.41;100.00
41254;BME280;26987;59.928;30.306;2023-02-28T06:26:04;100900.19;;;0.46;100.00
41254;BME280;26987;59.928;30.306;2023-02-28T06:28:31;100911.06;;;0.53;100.00
41254;BME280;26987;59.928;30.306;2023-02-28T06:30:59;100913.13;;;0.59;100.00
41254;BME280;26987;59.928;30.306;2023-02-28T06:33:32;100913.97;;;0.59;100.00
41254;BME280;26987;59.928;30.306;2023-02-28T06:36:00;100922.59;;;0.61;100.00
41254;BME280;26987;59.928;30.306;2023-02-28T06:38:30;100919.53;;;0.66;100.00
41254;BME280;26987;59.928;30.306;2023-02-28T06:40:59;100821.25;;;0.03;99.35
41254;BME280;26987;59.928;30.306;2023-02-28T06:43:28;100933.81;;;0.63;96.81
41254;BME280;26987;59.928;30.306;2023-02-28T06:45:58;100931.63;;;0.69;95.83
41254;BME280;26987;59.928;30.306;2023-02-28T06:48:27;100939.94;;;0.74;95.47
41254;BME280;26987;59.928;30.306;2023-02-28T06:51:01;100958.31;;;0.85;94.65
41254;BME280;26987;59.928;30.306;2023-02-28T06:53:31;100962.63;;;0.86;92.62
41254;BME280;26987;59.928;30.306;2023-02-28T06:55:59;100928.53;;;0.54;90.21
41254;BME280;26987;59.928;30.306;2023-02-28T06:58:32;100982.34;;;0.82;89.00
41254;BME280;26987;59.928;30.306;2023-02-28T07:01:00;100962.19;;;0.61;84.30
41254;BME280;26987;59.928;30.306;2023-02-28T07:03:28;100981.25;;;0.75;83.59
41254;BME280;26987;59.928;30.306;2023-02-28T07:05:56;100995.84;;;0.79;81.61
41254;BME280;26987;59.928;30.306;2023-02-28T07:08:24;101005.94;;;0.74;80.93
41254;BME280;26987;59.928;30.306;2023-02-28T07:10:54;101026.25;;;0.73;78.44
41254;BME280;26987;59.928;30.306;2023-02-28T07:13:23;101009.34;;;0.45;73.45
41254;BME280;26987;59.928;30.306;2023-02-28T07:15:54;101044.22;;;0.48;71.06
41254;BME280;26987;59.928;30.306;2023-02-28T07:18:22;101021.94;;;0.31;71.89
41254;BME280;26987;59.928;30.306;2023-02-28T07:20:50;101034.16;;;0.32;71.57
41254;BME280;26987;59.928;30.306;2023-02-28T07:23:18;101021.81;;;0.33;70.05
41254;BME280;26987;59.928;30.306;2023-02-28T07:25:46;101018.06;;;0.35;70.03
41254;BME280;26987;59.928;30.306;2023-02-28T07:28:15;101014.19;;;0.40;70.65
41254;BME280;26987;59.928;30.306;2023-02-28T07:30:43;101001.09;;;0.28;67.38
41254;BME280;26987;59.928;30.306;2023-02-28T07:33:11;101010.16;;;0.35;67.46
41254;BME280;26987;59.928;30.306;2023-02-28T07:35:39;101023.06;;;0.39;65.73
41254;BME280;26987;59.928;30.306;2023-02-28T07:38:07;101027.69;;;0.46;64.89
41254;BME280;26987;59.928;30.306;2023-02-28T07:40:36;101016.28;;;0.46;66.63
41254;BME280;26987;59.928;30.306;2023-02-28T07:43:04;101009.25;;;0.56;65.23
41254;BME280;26987;59.928;30.306;2023-02-28T07:45:33;101011.22;;;0.64;64.76
41254;BME280;26987;59.928;30.306;2023-02-28T07:48:02;100985.34;;;0.48;62.77
41254;BME280;26987;59.928;30.306;2023-02-28T07:50:30;101013.72;;;0.56;60.84
41254;BME280;26987;59.928;30.306;2023-02-28T07:52:58;101007.31;;;0.58;60.99
41254;BME280;26987;59.928;30.306;2023-02-28T07:55:25;101004.94;;;0.55;60.94
41254;BME280;26987;59.928;30.306;2023-02-28T07:57:53;101008.84;;;0.61;59.51
41254;BME280;26987;59.928;30.306;2023-02-28T08:00:22;101009.25;;;0.56;58.63
41254;BME280;26987;59.928;30.306;2023-02-28T08:02:51;101019.53;;;0.59;58.07
41254;BME280;26987;59.928;30.306;2023-02-28T08:05:19;101012.59;;;0.58;58.14
41254;BME280;26987;59.928;30.306;2023-02-28T08:07:49;101010.03;;;0.47;55.76
41254;BME280;26987;59.928;30.306;2023-02-28T08:10:17;101021.75;;;0.54;56.90
41254;BME280;26987;59.928;30.306;2023-02-28T08:12:45;101007.31;;;0.58;56.99
41254;BME280;26987;59.928;30.306;2023-02-28T08:15:13;101011.63;;;0.59;55.97
41254;BME280;26987;59.928;30.306;2023-02-28T08:17:41;101020.91;;;0.54;56.23
41254;BME280;26987;59.928;30.306;2023-02-28T08:20:11;101031.75;;;0.60;56.17
41254;BME280;26987;59.928;30.306;2023-02-28T08:22:41;101035.38;;;0.59;54.69
41254;BME280;26987;59.928;30.306;2023-02-28T08:25:10;101039.66;;;0.60;54.47
41254;BME280;26987;59.928;30.306;2023-02-28T08:27:38;101045.53;;;0.64;54.92
41254;BME280;26987;59.928;30.306;2023-02-28T08:30:07;101026.66;;;0.69;54.10
41254;BME280;26987;59.928;30.306;2023-02-28T08:32:36;101047.13;;;0.86;53.73
41254;BME280;26987;59.928;30.306;2023-02-28T08:35:04;101031.41;;;0.85;53.34
41254;BME280;26987;59.928;30.306;2023-02-28T08:37:34;101050.75;;;0.95;52.90
41254;BME280;26987;59.928;30.306;2023-02-28T08:40:02;101045.78;;;1.02;54.01
41254;BME280;26987;59.928;30.306;2023-02-28T08:42:30;101049.25;;;1.12;53.70
41254;BME280;26987;59.928;30.306;2023-02-28T08:44:59;101053.44;;;1.15;53.24
41254;BME280;26987;59.928;30.306;2023-02-28T08:47:27;101054.41;;;1.24;53.51
41254;BME280;26987;59.928;30.306;2023-02-28T08:49:55;101039.81;;;1.20;53.12
41254;BME280;26987;59.928;30.306;2023-02-28T08:52:22;101057.88;;;1.15;52.09
41254;BME280;26987;59.928;30.306;2023-02-28T08:54:52;101047.44;;;1.03;52.35
41254;BME280;26987;59.928;30.306;2023-02-28T08:57:20;101059.44;;;1.17;52.13
41254;BME280;26987;59.928;30.306;2023-02-28T08:59:47;101065.25;;;1.11;50.61
41254;BME280;26987;59.928;30.306;2023-02-28T09:02:15;101060.22;;;0.98;51.85
41254;BME280;26987;59.928;30.306;2023-02-28T09:04:43;101040.53;;;0.61;52.46
41254;BME280;26987;59.928;30.306;2023-02-28T09:07:12;101075.03;;;0.79;51.55
41254;BME280;26987;59.928;30.306;2023-02-28T09:09:40;101077.41;;;0.82;53.61
41254;BME280;26987;59.928;30.306;2023-02-28T09:12:21;101072.22;;;0.71;53.01
41254;BME280;26987;59.928;30.306;2023-02-28T09:14:49;101091.84;;;0.78;53.33
41254;BME280;26987;59.928;30.306;2023-02-28T09:17:17;101084.63;;;0.80;54.29
41254;BME280;26987;59.928;30.306;2023-02-28T09:19:47;101077.56;;;0.91;53.90
41254;BME280;26987;59.928;30.306;2023-02-28T09:22:15;101068.97;;;0.88;54.26
41254;BME280;26987;59.928;30.306;2023-02-28T09:24:43;101064.81;;;0.96;54.04
41254;BME280;26987;59.928;30.306;2023-02-28T09:27:12;101076.94;;;1.08;53.36
41254;BME280;26987;59.928;30.306;2023-02-28T09:29:41;101061.09;;;1.08;53.20
41254;BME280;26987;59.928;30.306;2023-02-28T09:32:09;101074.28;;;1.18;52.44
41254;BME280;26987;59.928;30.306;2023-02-28T09:34:37;101078.19;;;1.24;51.72
41254;BME280;26987;59.928;30.306;2023-02-28T09:37:05;101049.13;;;1.24;51.95
41254;BME280;26987;59.928;30.306;2023-02-28T09:39:32;101073.22;;;1.41;53.08
41254;BME280;26987;59.928;30.306;2023-02-28T09:42:02;101079.75;;;1.66;54.75
41254;BME280;26987;59.928;30.306;2023-02-28T09:44:33;101040.22;;;1.64;56.54
41254;BME280;26987;59.928;30.306;2023-02-28T09:47:12;101070.66;;;2.08;58.55
41254;BME280;26987;59.928;30.306;2023-02-28T09:49:43;101075.75;;;2.30;56.56
41254;BME280;26987;59.928;30.306;2023-02-28T09:52:15;101072.06;;;2.50;57.08
41254;BME280;26987;59.928;30.306;2023-02-28T09:54:44;101074.69;;;2.60;57.59
41254;BME280;26987;59.928;30.306;2023-02-28T09:57:31;101070.69;;;2.84;58.26
41254;BME280;26987;59.928;30.306;2023-02-28T10:00:06;101078.03;;;2.90;54.40
41254;BME280;26987;59.928;30.306;2023-02-28T10:03:06;101092.16;;;2.81;55.93
41254;BME280;26987;59.928;30.306;2023-02-28T10:05:43;101112.22;;;2.46;49.93
41254;BME280;26987;59.928;30.306;2023-02-28T10:08:18;101093.66;;;1.98;46.41
41254;BME280;26987;59.928;30.306;2023-02-28T10:10:49;101096.84;;;1.92;45.28
41254;BME280;26987;59.928;30.306;2023-02-28T10:13:24;101085.16;;;1.84;44.64
41254;BME280;26987;59.928;30.306;2023-02-28T10:15:56;101087.41;;;1.69;43.07
41254;BME280;26987;59.928;30.306;2023-02-28T10:18:41;101090.06;;;1.79;43.75
41254;BME280;26987;59.928;30.306;2023-02-28T10:21:18;101102.59;;;1.77;42.07
41254;BME280;26987;59.928;30.306;2023-02-28T10:23:48;101081.56;;;1.66;40.04
41254;BME280;26987;59.928;30.306;2023-02-28T10:26:17;101097.00;;;1.60;39.87
41254;BME280;26987;59.928;30.306;2023-02-28T10:28:45;101092.16;;;1.66;40.51
41254;BME280;26987;59.928;30.306;2023-02-28T10:31:17;101090.19;;;1.68;39.70
41254;BME280;26987;59.928;30.306;2023-02-28T10:33:47;101103.81;;;1.63;39.06
41254;BME280;26987;59.928;30.306;2023-02-28T10:36:18;101094.78;;;1.56;39.07
41254;BME280;26987;59.928;30.306;2023-02-28T10:38:47;101097.28;;;1.47;39.31
41254;BME280;26987;59.928;30.306;2023-02-28T10:41:27;101104.09;;;1.50;39.67
41254;BME280;26987;59.928;30.306;2023-02-28T10:44:13;101056.09;;;1.25;40.22
41254;BME280;26987;59.928;30.306;2023-02-28T10:46:42;101108.41;;;1.41;39.21
41254;BME280;26987;59.928;30.306;2023-02-28T10:49:17;101112.97;;;1.39;40.59
41254;BME280;26987;59.928;30.306;2023-02-28T10:51:50;101108.38;;;1.31;39.94
41254;BME280;26987;59.928;30.306;2023-02-28T10:54:22;101110.75;;;1.34;40.00
41254;BME280;26987;59.928;30.306;2023-02-28T10:57:16;101090.44;;;1.35;41.68
41254;BME280;26987;59.928;30.306;2023-02-28T10:59:45;101109.22;;;1.32;39.90
41254;BME280;26987;59.928;30.306;2023-02-28T11:02:33;101072.34;;;1.10;40.60
41254;BME280;26987;59.928;30.306;2023-02-28T11:05:23;101102.28;;;1.31;40.24
41254;BME280;26987;59.928;30.306;2023-02-28T11:07:52;101092.13;;;1.26;40.26
41254;BME280;26987;59.928;30.306;2023-02-28T11:10:24;101097.41;;;1.26;38.49
41254;BME280;26987;59.928;30.306;2023-02-28T11:12:55;101106.94;;;1.07;38.03
41254;BME280;26987;59.928;30.306;2023-02-28T11:15:25;101101.91;;;1.04;37.39
41254;BME280;26987;59.928;30.306;2023-02-28T11:17:54;101118.72;;;0.93;35.62
41254;BME280;26987;59.928;30.306;2023-02-28T11:20:28;101070.41;;;0.61;36.18
41254;BME280;26987;59.928;30.306;2023-02-28T11:22:57;101097.09;;;0.68;34.61
41254;BME280;26987;59.928;30.306;2023-02-28T11:25:30;101107.81;;;0.77;33.84
41254;BME280;26987;59.928;30.306;2023-02-28T11:28:00;101099.97;;;0.65;35.04
41254;BME280;26987;59.928;30.306;2023-02-28T11:30:36;101111.97;;;0.69;34.61
41254;BME280;26987;59.928;30.306;2023-02-28T11:33:22;101072.44;;;0.48;36.14
41254;BME280;26987;59.928;30.306;2023-02-28T11:35:52;101114.75;;;0.68;34.12
41254;BME280;26987;59.928;30.306;2023-02-28T11:38:22;101097.59;;;0.62;35.21
41254;BME280;26987;59.928;30.306;2023-02-28T11:41:01;101103.69;;;0.53;34.68
41254;BME280;26987;59.928;30.306;2023-02-28T11:43:40;101097.22;;;0.35;35.36
41254;BME280;26987;59.928;30.306;2023-02-28T11:46:20;101113.22;;;0.44;36.25
41254;BME280;26987;59.928;30.306;2023-02-28T11:48:59;101057.00;;;0.22;35.89
41254;BME280;26987;59.928;30.306;2023-02-28T11:51:34;101101.44;;;0.48;36.38
41254;BME280;26987;59.928;30.306;2023-02-28T11:54:32;101095.78;;;0.53;36.35
41254;BME280;26987;59.928;30.306;2023-02-28T11:57:14;101109.28;;;0.59;36.92
41254;BME280;26987;59.928;30.306;2023-02-28T11:59:52;101103.72;;;0.62;36.72
41254;BME280;26987;59.928;30.306;2023-02-28T12:02:28;101105.91;;;0.57;36.98
41254;BME280;26987;59.928;30.306;2023-02-28T12:05:14;101104.25;;;0.56;37.24
41254;BME280;26987;59.928;30.306;2023-02-28T12:08:01;101107.63;;;0.58;37.08
41254;BME280;26987;59.928;30.306;2023-02-28T12:10:36;101092.56;;;0.49;37.23
41254;BME280;26987;59.928;30.306;2023-02-28T12:13:14;101102.59;;;0.55;37.41
41254;BME280;26987;59.928;30.306;2023-02-28T12:16:01;101134.53;;;0.52;36.69
41254;BME280;26987;59.928;30.306;2023-02-28T12:18:47;101071.19;;;0.21;35.62
41254;BME280;26987;59.928;30.306;2023-02-28T12:21:24;101118.94;;;0.49;36.53
41254;BME280;26987;59.928;30.306;2023-02-28T12:24:17;101119.78;;;0.49;36.49
41254;BME280;26987;59.928;30.306;2023-02-28T12:26:51;101110.28;;;0.37;34.34
41254;BME280;26987;59.928;30.306;2023-02-28T12:29:23;101101.59;;;0.25;33.96
41254;BME280;26987;59.928;30.306;2023-02-28T12:31:55;101123.34;;;0.39;34.34
41254;BME280;26987;59.928;30.306;2023-02-28T12:34:31;101111.56;;;0.21;34.90
41254;BME280;26987;59.928;30.306;2023-02-28T12:37:03;101134.41;;;0.32;35.30
41254;BME280;26987;59.928;30.306;2023-02-28T12:39:37;101120.25;;;0.33;35.61
41254;BME280;26987;59.928;30.306;2023-02-28T12:42:10;101124.44;;;0.36;35.51
41254;BME280;26987;59.928;30.306;2023-02-28T12:44:44;101115.81;;;0.34;35.47
41254;BME280;26987;59.928;30.306;2023-02-28T12:47:15;101122.19;;;0.31;35.53
41254;BME280;26987;59.928;30.306;2023-02-28T12:49:46;101116.44;;;0.26;35.41
41254;BME280;26987;59.928;30.306;2023-02-28T12:52:20;101117.31;;;0.27;35.79
41254;BME280;26987;59.928;30.306;2023-02-28T12:54:55;101122.19;;;0.31;35.39
41254;BME280;26987;59.928;30.306;2023-02-28T12:57:33;101129.47;;;0.39;36.17
41254;BME280;26987;59.928;30.306;2023-02-28T13:00:08;101120.97;;;0.35;36.82
41254;BME280;26987;59.928;30.306;2023-02-28T13:09:09;101124.84;;;0.62;36.62
41254;BME280;26987;59.928;30.306;2023-02-28T13:11:43;101116.47;;;0.57;36.25
41254;BME280;26987;59.928;30.306;2023-02-28T13:14:20;101120.69;;;0.60;37.69
41254;BME280;26987;59.928;30.306;2023-02-28T13:17:10;101123.34;;;0.70;36.92
41254;BME280;26987;59.928;30.306;2023-02-28T13:19:42;101105.09;;;0.57;36.57